sensor_id;sensor_type;location;lat;lon;timestamp;P1;durP1;ratioP1;P2;durP2;ratioP2
63203;SDS011;49297;43.210;27.914;2022-09-12T00:01:23;5.50;;;3.20;;
63203;SDS011;49297;43.210;27.914;2022-09-12T00:03:58;4.32;;;2.20;;
63203;SDS011;49297;43.210;27.914;2022-09-12T00:06:30;5.25;;;1.77;;
63203;SDS011;49297;43.210;27.914;2022-09-12T00:09:01;2.70;;;1.48;;
63203;SDS011;49297;43.210;27.914;2022-09-12T00:11:33;2.42;;;1.48;;
63203;SDS011;49297;43.210;27.914;2022-09-12T00:14:03;3.45;;;1.10;;
63203;SDS011;49297;43.210;27.914;2022-09-12T00:16:32;2.10;;;1.10;;
63203;SDS011;49297;43.210;27.914;2022-09-12T00:18:59;3.00;;;1.15;;
63203;SDS011;49297;43.210;27.914;2022-09-12T00:21:26;1.43;;;1.17;;
63203;SDS011;49297;43.210;27.914;2022-09-12T00:23:52;4.00;;;1.30;;
63203;SDS011;49297;43.210;27.914;2022-09-12T00:26:18;1.23;;;1.13;;
63203;SDS011;49297;43.210;27.914;2022-09-12T00:28:45;6.32;;;1.30;;
63203;SDS011;49297;43.210;27.914;2022-09-12T00:31:13;2.20;;;1.15;;
63203;SDS011;49297;43.210;27.914;2022-09-12T00:33:41;3.10;;;1.13;;
63203;SDS011;49297;43.210;27.914;2022-09-12T00:36:15;2.90;;;1.10;;
63203;SDS011;49297;43.210;27.914;2022-09-12T00:38:44;7.53;;;1.60;;
63203;SDS011;49297;43.210;27.914;2022-09-12T00:41:13;3.37;;;1.30;;
63203;SDS011;49297;43.210;27.914;2022-09-12T00:43:46;3.80;;;1.30;;
63203;SDS011;49297;43.210;27.914;2022-09-12T00:46:28;3.03;;;1.20;;
63203;SDS011;49297;43.210;27.914;2022-09-12T00:52:34;5.13;;;2.08;;
63203;SDS011;49297;43.210;27.914;2022-09-12T00:54:54;6.40;;;2.38;;
63203;SDS011;49297;43.210;27.914;2022-09-12T00:57:44;5.15;;;2.30;;
63203;SDS011;49297;43.210;27.914;2022-09-12T01:00:25;5.38;;;2.95;;
63203;SDS011;49297;43.210;27.914;2022-09-12T01:02:56;7.55;;;2.65;;
63203;SDS011;49297;43.210;27.914;2022-09-12T01:05:25;5.57;;;2.50;;
63203;SDS011;49297;43.210;27.914;2022-09-12T01:07:53;3.00;;;2.37;;
63203;SDS011;49297;43.210;27.914;2022-09-12T01:10:21;6.38;;;3.05;;
63203;SDS011;49297;43.210;27.914;2022-09-12T01:12:48;11.57;;;3.75;;
63203;SDS011;49297;43.210;27.914;2022-09-12T01:15:14;5.32;;;3.70;;
63203;SDS011;49297;43.210;27.914;2022-09-12T01:18:08;5.43;;;3.40;;
63203;SDS011;49297;43.210;27.914;2022-09-12T01:20:49;4.93;;;3.90;;
63203;SDS011;49297;43.210;27.914;2022-09-12T01:29:13;6.20;;;5.60;;
63203;SDS011;49297;43.210;27.914;2022-09-12T01:32:03;7.50;;;6.00;;
63203;SDS011;49297;43.210;27.914;2022-09-12T01:34:45;8.40;;;6.50;;
63203;SDS011;49297;43.210;27.914;2022-09-12T01:37:26;8.90;;;7.20;;
63203;SDS011;49297;43.210;27.914;2022-09-12T01:40:08;7.90;;;7.10;;
63203;SDS011;49297;43.210;27.914;2022-09-12T01:45:42;12.93;;;11.50;;
63203;SDS011;49297;43.210;27.914;2022-09-12T01:50:51;9.30;;;8.30;;
63203;SDS011;49297;43.210;27.914;2022-09-12T01:53:37;9.85;;;7.88;;
63203;SDS011;49297;43.210;27.914;2022-09-12T01:56:09;7.40;;;6.70;;
63203;SDS011;49297;43.210;27.914;2022-09-12T01:58:44;8.05;;;6.72;;
63203;SDS011;49297;43.210;27.914;2022-09-12T02:01:16;7.95;;;6.75;;
63203;SDS011;49297;43.210;27.914;2022-09-12T02:03:53;7.05;;;6.38;;
63203;SDS011;49297;43.210;27.914;2022-09-12T02:06:49;7.60;;;6.77;;
63203;SDS011;49297;43.210;27.914;2022-09-12T02:12:04;6.45;;;5.63;;
63203;SDS011;49297;43.210;27.914;2022-09-12T02:14:36;5.47;;;4.68;;
63203;SDS011;49297;43.210;27.914;2022-09-12T02:17:06;6.63;;;5.13;;
63203;SDS011;49297;43.210;27.914;2022-09-12T02:19:37;6.77;;;5.17;;
63203;SDS011;49297;43.210;27.914;2022-09-12T02:22:08;6.55;;;5.28;;
63203;SDS011;49297;43.210;27.914;2022-09-12T02:24:39;7.10;;;6.40;;
63203;SDS011;49297;43.210;27.914;2022-09-12T02:27:15;6.00;;;5.40;;
63203;SDS011;49297;43.210;27.914;2022-09-12T02:29:45;7.53;;;6.53;;
63203;SDS011;49297;43.210;27.914;2022-09-12T02:35:25;6.72;;;5.65;;
63203;SDS011;49297;43.210;27.914;2022-09-12T02:38:29;6.75;;;4.90;;
63203;SDS011;49297;43.210;27.914;2022-09-12T02:40:59;5.15;;;4.10;;
63203;SDS011;49297;43.210;27.914;2022-09-12T02:43:25;5.07;;;4.17;;
63203;SDS011;49297;43.210;27.914;2022-09-12T02:45:51;5.57;;;3.80;;
63203;SDS011;49297;43.210;27.914;2022-09-12T02:48:19;4.75;;;4.30;;
63203;SDS011;49297;43.210;27.914;2022-09-12T02:50:48;4.90;;;4.07;;
63203;SDS011;49297;43.210;27.914;2022-09-12T02:53:14;4.97;;;4.07;;
63203;SDS011;49297;43.210;27.914;2022-09-12T02:55:40;5.05;;;3.70;;
63203;SDS011;49297;43.210;27.914;2022-09-12T02:58:08;4.93;;;3.75;;
63203;SDS011;49297;43.210;27.914;2022-09-12T03:06:20;3.42;;;2.97;;
63203;SDS011;49297;43.210;27.914;2022-09-12T03:09:19;3.90;;;3.33;;
63203;SDS011;49297;43.210;27.914;2022-09-12T03:12:05;5.20;;;3.30;;
63203;SDS011;49297;43.210;27.914;2022-09-12T03:20:02;5.80;;;4.07;;
63203;SDS011;49297;43.210;27.914;2022-09-12T03:25:18;5.15;;;4.05;;
63203;SDS011;49297;43.210;27.914;2022-09-12T03:27:49;5.93;;;4.68;;
63203;SDS011;49297;43.210;27.914;2022-09-12T03:30:41;6.80;;;5.25;;
63203;SDS011;49297;43.210;27.914;2022-09-12T03:33:12;6.65;;;5.95;;
63203;SDS011;49297;43.210;27.914;2022-09-12T03:35:39;9.57;;;8.57;;
63203;SDS011;49297;43.210;27.914;2022-09-12T03:38:05;10.70;;;9.80;;
63203;SDS011;49297;43.210;27.914;2022-09-12T03:40:34;8.55;;;7.75;;
63203;SDS011;49297;43.210;27.914;2022-09-12T03:43:02;8.48;;;7.40;;
63203;SDS011;49297;43.210;27.914;2022-09-12T03:45:32;9.50;;;7.75;;
63203;SDS011;49297;43.210;27.914;2022-09-12T03:47:58;9.20;;;8.40;;
63203;SDS011;49297;43.210;27.914;2022-09-12T03:50:24;11.40;;;10.30;;
63203;SDS011;49297;43.210;27.914;2022-09-12T03:55:23;10.15;;;9.25;;
63203;SDS011;49297;43.210;27.914;2022-09-12T03:57:54;10.18;;;9.30;;
63203;SDS011;49297;43.210;27.914;2022-09-12T04:00:20;10.60;;;9.50;;
63203;SDS011;49297;43.210;27.914;2022-09-12T04:05:27;9.38;;;8.05;;
63203;SDS011;49297;43.210;27.914;2022-09-12T04:07:53;9.15;;;8.25;;
63203;SDS011;49297;43.210;27.914;2022-09-12T04:10:19;7.50;;;6.80;;
63203;SDS011;49297;43.210;27.914;2022-09-12T04:12:45;10.87;;;6.10;;
63203;SDS011;49297;43.210;27.914;2022-09-12T04:15:10;6.95;;;6.13;;
63203;SDS011;49297;43.210;27.914;2022-09-12T04:17:36;7.07;;;5.30;;
63203;SDS011;49297;43.210;27.914;2022-09-12T04:20:02;9.53;;;5.27;;
63203;SDS011;49297;43.210;27.914;2022-09-12T04:22:28;12.00;;;4.77;;
63203;SDS011;49297;43.210;27.914;2022-09-12T04:24:56;5.25;;;4.68;;
63203;SDS011;49297;43.210;27.914;2022-09-12T04:27:21;7.18;;;5.68;;
63203;SDS011;49297;43.210;27.914;2022-09-12T04:29:47;7.37;;;6.57;;
63203;SDS011;49297;43.210;27.914;2022-09-12T04:32:13;10.38;;;5.90;;
63203;SDS011;49297;43.210;27.914;2022-09-12T04:34:39;9.65;;;6.70;;
63203;SDS011;49297;43.210;27.914;2022-09-12T04:37:04;11.32;;;9.95;;
63203;SDS011;49297;43.210;27.914;2022-09-12T04:39:30;13.47;;;7.03;;
63203;SDS011;49297;43.210;27.914;2022-09-12T04:41:56;6.25;;;5.68;;
63203;SDS011;49297;43.210;27.914;2022-09-12T04:44:22;6.50;;;5.90;;
63203;SDS011;49297;43.210;27.914;2022-09-12T04:46:47;6.80;;;5.15;;
63203;SDS011;49297;43.210;27.914;2022-09-12T04:49:14;6.50;;;4.63;;
63203;SDS011;49297;43.210;27.914;2022-09-12T04:51:43;6.32;;;4.45;;
63203;SDS011;49297;43.210;27.914;2022-09-12T04:54:13;5.83;;;4.10;;
63203;SDS011;49297;43.210;27.914;2022-09-12T04:56:42;5.47;;;3.17;;
63203;SDS011;49297;43.210;27.914;2022-09-12T04:59:09;5.15;;;3.13;;
63203;SDS011;49297;43.210;27.914;2022-09-12T05:01:36;11.23;;;3.97;;
63203;SDS011;49297;43.210;27.914;2022-09-12T05:04:01;6.38;;;2.83;;
63203;SDS011;49297;43.210;27.914;2022-09-12T05:06:28;5.00;;;2.80;;
63203;SDS011;49297;43.210;27.914;2022-09-12T05:08:56;7.88;;;3.80;;
63203;SDS011;49297;43.210;27.914;2022-09-12T05:11:25;5.00;;;2.65;;
63203;SDS011;49297;43.210;27.914;2022-09-12T05:13:52;5.82;;;2.30;;
63203;SDS011;49297;43.210;27.914;2022-09-12T05:16:18;2.47;;;2.17;;
63203;SDS011;49297;43.210;27.914;2022-09-12T05:18:45;2.92;;;2.17;;
63203;SDS011;49297;43.210;27.914;2022-09-12T05:21:13;6.47;;;2.70;;
63203;SDS011;49297;43.210;27.914;2022-09-12T05:23:40;4.97;;;2.25;;
63203;SDS011;49297;43.210;27.914;2022-09-12T05:26:06;3.33;;;2.45;;
63203;SDS011;49297;43.210;27.914;2022-09-12T05:28:33;4.75;;;2.42;;
63203;SDS011;49297;43.210;27.914;2022-09-12T05:31:02;2.90;;;2.13;;
63203;SDS011;49297;43.210;27.914;2022-09-12T05:33:28;4.60;;;2.30;;
63203;SDS011;49297;43.210;27.914;2022-09-12T05:35:55;7.70;;;2.97;;
63203;SDS011;49297;43.210;27.914;2022-09-12T05:38:21;3.73;;;2.40;;
63203;SDS011;49297;43.210;27.914;2022-09-12T05:40:49;3.37;;;2.40;;
63203;SDS011;49297;43.210;27.914;2022-09-12T05:43:16;3.10;;;2.23;;
63203;SDS011;49297;43.210;27.914;2022-09-12T05:45:42;3.95;;;2.40;;
63203;SDS011;49297;43.210;27.914;2022-09-12T05:48:07;4.03;;;2.42;;
63203;SDS011;49297;43.210;27.914;2022-09-12T05:50:33;7.47;;;2.58;;
63203;SDS011;49297;43.210;27.914;2022-09-12T05:52:59;6.03;;;2.83;;
63203;SDS011;49297;43.210;27.914;2022-09-12T05:55:25;6.30;;;2.57;;
63203;SDS011;49297;43.210;27.914;2022-09-12T05:57:51;6.88;;;3.10;;
63203;SDS011;49297;43.210;27.914;2022-09-12T06:00:18;4.60;;;2.65;;
63203;SDS011;49297;43.210;27.914;2022-09-12T06:02:50;8.10;;;2.35;;
63203;SDS011;49297;43.210;27.914;2022-09-12T06:05:17;3.85;;;2.30;;
63203;SDS011;49297;43.210;27.914;2022-09-12T06:07:46;3.33;;;1.70;;
63203;SDS011;49297;43.210;27.914;2022-09-12T06:10:12;2.47;;;1.75;;
63203;SDS011;49297;43.210;27.914;2022-09-12T06:12:40;6.95;;;2.25;;
63203;SDS011;49297;43.210;27.914;2022-09-12T06:15:07;4.78;;;2.50;;
63203;SDS011;49297;43.210;27.914;2022-09-12T06:17:33;3.78;;;2.10;;
63203;SDS011;49297;43.210;27.914;2022-09-12T06:19:59;6.67;;;2.13;;
63203;SDS011;49297;43.210;27.914;2022-09-12T06:22:26;2.88;;;2.05;;
63203;SDS011;49297;43.210;27.914;2022-09-12T06:24:51;3.50;;;1.75;;
63203;SDS011;49297;43.210;27.914;2022-09-12T06:27:17;3.83;;;1.70;;
63203;SDS011;49297;43.210;27.914;2022-09-12T06:29:43;4.45;;;1.92;;
63203;SDS011;49297;43.210;27.914;2022-09-12T06:32:08;10.60;;;2.40;;
63203;SDS011;49297;43.210;27.914;2022-09-12T06:34:35;6.00;;;2.33;;
63203;SDS011;49297;43.210;27.914;2022-09-12T06:37:00;2.75;;;1.60;;
63203;SDS011;49297;43.210;27.914;2022-09-12T06:42:10;6.30;;;2.33;;
63203;SDS011;49297;43.210;27.914;2022-09-12T06:44:36;4.60;;;1.63;;
63203;SDS011;49297;43.210;27.914;2022-09-12T06:47:02;5.30;;;2.00;;
63203;SDS011;49297;43.210;27.914;2022-09-12T06:49:28;2.47;;;1.75;;
63203;SDS011;49297;43.210;27.914;2022-09-12T06:51:55;5.47;;;2.22;;
63203;SDS011;49297;43.210;27.914;2022-09-12T06:54:20;3.97;;;2.10;;
63203;SDS011;49297;43.210;27.914;2022-09-12T06:56:47;3.45;;;1.73;;
63203;SDS011;49297;43.210;27.914;2022-09-12T06:59:16;7.28;;;1.58;;
63203;SDS011;49297;43.210;27.914;2022-09-12T07:01:42;5.13;;;1.85;;
63203;SDS011;49297;43.210;27.914;2022-09-12T07:04:08;5.57;;;1.70;;
63203;SDS011;49297;43.210;27.914;2022-09-12T07:06:38;3.92;;;1.73;;
63203;SDS011;49297;43.210;27.914;2022-09-12T07:09:09;5.77;;;1.57;;
63203;SDS011;49297;43.210;27.914;2022-09-12T07:11:37;3.83;;;1.65;;
63203;SDS011;49297;43.210;27.914;2022-09-12T07:14:05;3.63;;;1.90;;
63203;SDS011;49297;43.210;27.914;2022-09-12T07:16:36;2.30;;;1.65;;
63203;SDS011;49297;43.210;27.914;2022-09-12T07:19:03;6.20;;;2.50;;
63203;SDS011;49297;43.210;27.914;2022-09-12T07:21:32;2.92;;;1.73;;
63203;SDS011;49297;43.210;27.914;2022-09-12T07:24:03;3.75;;;1.48;;
63203;SDS011;49297;43.210;27.914;2022-09-12T07:26:30;2.97;;;1.63;;
63203;SDS011;49297;43.210;27.914;2022-09-12T07:28:57;2.20;;;1.70;;
63203;SDS011;49297;43.210;27.914;2022-09-12T07:31:24;2.45;;;1.38;;
63203;SDS011;49297;43.210;27.914;2022-09-12T07:33:51;2.47;;;1.55;;
63203;SDS011;49297;43.210;27.914;2022-09-12T07:36:18;5.68;;;1.67;;
63203;SDS011;49297;43.210;27.914;2022-09-12T07:38:46;3.78;;;1.35;;
63203;SDS011;49297;43.210;27.914;2022-09-12T07:41:13;4.57;;;2.13;;
63203;SDS011;49297;43.210;27.914;2022-09-12T07:43:41;5.40;;;1.80;;
63203;SDS011;49297;43.210;27.914;2022-09-12T07:46:07;2.78;;;1.45;;
63203;SDS011;49297;43.210;27.914;2022-09-12T07:48:33;4.10;;;1.48;;
63203;SDS011;49297;43.210;27.914;2022-09-12T07:51:00;2.05;;;1.85;;
63203;SDS011;49297;43.210;27.914;2022-09-12T07:53:31;3.70;;;1.73;;
63203;SDS011;49297;43.210;27.914;2022-09-12T07:55:59;3.38;;;2.00;;
63203;SDS011;49297;43.210;27.914;2022-09-12T07:58:25;3.45;;;1.88;;
63203;SDS011;49297;43.210;27.914;2022-09-12T08:00:51;3.10;;;2.20;;
63203;SDS011;49297;43.210;27.914;2022-09-12T08:03:17;5.67;;;2.37;;
63203;SDS011;49297;43.210;27.914;2022-09-12T08:05:43;3.97;;;1.90;;
63203;SDS011;49297;43.210;27.914;2022-09-12T08:08:08;3.10;;;1.60;;
63203;SDS011;49297;43.210;27.914;2022-09-12T08:10:34;2.77;;;1.50;;
63203;SDS011;49297;43.210;27.914;2022-09-12T08:13:01;2.65;;;2.00;;
63203;SDS011;49297;43.210;27.914;2022-09-12T08:18:04;3.95;;;1.80;;
63203;SDS011;49297;43.210;27.914;2022-09-12T08:20:30;6.27;;;2.43;;
63203;SDS011;49297;43.210;27.914;2022-09-12T08:22:56;3.95;;;1.83;;
63203;SDS011;49297;43.210;27.914;2022-09-12T08:25:21;3.60;;;1.87;;
63203;SDS011;49297;43.210;27.914;2022-09-12T08:27:47;3.20;;;1.83;;
63203;SDS011;49297;43.210;27.914;2022-09-12T08:30:13;7.38;;;2.50;;
63203;SDS011;49297;43.210;27.914;2022-09-12T08:32:39;4.20;;;1.73;;
63203;SDS011;49297;43.210;27.914;2022-09-12T08:35:04;2.97;;;1.48;;
63203;SDS011;49297;43.210;27.914;2022-09-12T08:37:30;1.52;;;1.02;;
63203;SDS011;49297;43.210;27.914;2022-09-12T08:39:56;5.27;;;1.50;;
63203;SDS011;49297;43.210;27.914;2022-09-12T08:42:42;3.30;;;1.25;;
63203;SDS011;49297;43.210;27.914;2022-09-12T08:45:35;3.90;;;1.80;;
63203;SDS011;49297;43.210;27.914;2022-09-12T08:48:07;1.90;;;1.17;;
63203;SDS011;49297;43.210;27.914;2022-09-12T08:50:35;7.22;;;1.38;;
63203;SDS011;49297;43.210;27.914;2022-09-12T08:53:14;3.55;;;1.42;;
63203;SDS011;49297;43.210;27.914;2022-09-12T08:55:55;3.83;;;1.50;;
63203;SDS011;49297;43.210;27.914;2022-09-12T08:58:23;1.07;;;0.87;;
63203;SDS011;49297;43.210;27.914;2022-09-12T09:06:27;4.40;;;1.40;;
63203;SDS011;49297;43.210;27.914;2022-09-12T09:14:38;5.68;;;5.13;;
63203;SDS011;49297;43.210;27.914;2022-09-12T09:28:21;1.40;;;1.30;;
63203;SDS011;49297;43.210;27.914;2022-09-12T09:30:54;3.53;;;1.63;;
63203;SDS011;49297;43.210;27.914;2022-09-12T09:33:21;1.63;;;1.17;;
63203;SDS011;49297;43.210;27.914;2022-09-12T09:35:51;3.75;;;2.00;;
63203;SDS011;49297;43.210;27.914;2022-09-12T09:43:55;1.55;;;1.30;;
63203;SDS011;49297;43.210;27.914;2022-09-12T09:46:22;2.78;;;1.65;;
63203;SDS011;49297;43.210;27.914;2022-09-12T09:48:48;2.30;;;1.60;;
63203;SDS011;49297;43.210;27.914;2022-09-12T09:51:20;3.97;;;1.40;;
63203;SDS011;49297;43.210;27.914;2022-09-12T09:54:02;2.33;;;1.50;;
63203;SDS011;49297;43.210;27.914;2022-09-12T09:56:38;3.20;;;2.30;;
63203;SDS011;49297;43.210;27.914;2022-09-12T09:59:26;3.38;;;1.38;;
63203;SDS011;49297;43.210;27.914;2022-09-12T10:01:58;3.30;;;1.40;;
63203;SDS011;49297;43.210;27.914;2022-09-12T10:04:41;2.13;;;1.20;;
63203;SDS011;49297;43.210;27.914;2022-09-12T10:07:19;1.98;;;1.40;;
63203;SDS011;49297;43.210;27.914;2022-09-12T10:10:03;1.98;;;1.45;;
63203;SDS011;49297;43.210;27.914;2022-09-12T10:12:32;1.33;;;1.23;;
63203;SDS011;49297;43.210;27.914;2022-09-12T10:14:59;6.57;;;1.77;;
63203;SDS011;49297;43.210;27.914;2022-09-12T10:22:55;3.72;;;1.40;;
63203;SDS011;49297;43.210;27.914;2022-09-12T10:25:23;3.53;;;1.90;;
63203;SDS011;49297;43.210;27.914;2022-09-12T10:27:58;1.80;;;1.20;;
63203;SDS011;49297;43.210;27.914;2022-09-12T10:30:25;1.80;;;1.15;;
63203;SDS011;49297;43.210;27.914;2022-09-12T10:33:13;2.03;;;1.00;;
63203;SDS011;49297;43.210;27.914;2022-09-12T10:35:43;5.32;;;1.42;;
63203;SDS011;49297;43.210;27.914;2022-09-12T10:38:22;2.25;;;1.10;;
63203;SDS011;49297;43.210;27.914;2022-09-12T10:41:00;2.42;;;1.40;;
63203;SDS011;49297;43.210;27.914;2022-09-12T10:43:29;17.88;;;2.10;;
63203;SDS011;49297;43.210;27.914;2022-09-12T10:48:43;1.30;;;0.77;;
63203;SDS011;49297;43.210;27.914;2022-09-12T10:53:51;4.35;;;1.73;;
63203;SDS011;49297;43.210;27.914;2022-09-12T10:56:21;3.92;;;1.98;;
63203;SDS011;49297;43.210;27.914;2022-09-12T11:01:41;1.63;;;0.80;;
63203;SDS011;49297;43.210;27.914;2022-09-12T11:06:57;1.98;;;1.38;;
63203;SDS011;49297;43.210;27.914;2022-09-12T11:26:12;3.63;;;1.30;;
63203;SDS011;49297;43.210;27.914;2022-09-12T11:29:06;3.15;;;1.42;;
63203;SDS011;49297;43.210;27.914;2022-09-12T11:31:51;1.58;;;0.90;;
63203;SDS011;49297;43.210;27.914;2022-09-12T11:34:32;2.73;;;1.20;;
63203;SDS011;49297;43.210;27.914;2022-09-12T11:37:46;2.75;;;0.90;;
63203;SDS011;49297;43.210;27.914;2022-09-12T11:45:47;1.03;;;0.93;;
63203;SDS011;49297;43.210;27.914;2022-09-12T11:48:19;3.75;;;0.90;;
63203;SDS011;49297;43.210;27.914;2022-09-12T11:51:06;3.95;;;1.77;;
63203;SDS011;49297;43.210;27.914;2022-09-12T11:53:42;1.40;;;1.10;;
63203;SDS011;49297;43.210;27.914;2022-09-12T11:56:20;2.90;;;1.08;;
63203;SDS011;49297;43.210;27.914;2022-09-12T11:58:49;0.90;;;0.80;;
63203;SDS011;49297;43.210;27.914;2022-09-12T12:01:30;1.33;;;1.13;;
63203;SDS011;49297;43.210;27.914;2022-09-12T12:04:00;4.57;;;1.90;;
63203;SDS011;49297;43.210;27.914;2022-09-12T12:06:42;3.13;;;2.17;;
63203;SDS011;49297;43.210;27.914;2022-09-12T12:09:25;4.30;;;1.92;;
63203;SDS011;49297;43.210;27.914;2022-09-12T12:11:52;2.05;;;1.42;;
63203;SDS011;49297;43.210;27.914;2022-09-12T12:14:23;3.38;;;1.30;;
63203;SDS011;49297;43.210;27.914;2022-09-12T12:17:14;2.43;;;1.17;;
63203;SDS011;49297;43.210;27.914;2022-09-12T12:20:00;4.57;;;1.80;;
63203;SDS011;49297;43.210;27.914;2022-09-12T12:22:28;1.25;;;1.02;;
63203;SDS011;49297;43.210;27.914;2022-09-12T12:25:03;1.10;;;0.90;;
63203;SDS011;49297;43.210;27.914;2022-09-12T12:27:52;1.02;;;0.95;;
63203;SDS011;49297;43.210;27.914;2022-09-12T12:32:59;1.55;;;1.00;;
63203;SDS011;49297;43.210;27.914;2022-09-12T12:43:44;2.08;;;1.45;;
63203;SDS011;49297;43.210;27.914;2022-09-12T12:46:16;2.25;;;1.65;;
63203;SDS011;49297;43.210;27.914;2022-09-12T13:00:03;1.67;;;0.90;;
63203;SDS011;49297;43.210;27.914;2022-09-12T13:02:40;2.28;;;1.77;;
63203;SDS011;49297;43.210;27.914;2022-09-12T13:05:20;2.00;;;1.10;;
63203;SDS011;49297;43.210;27.914;2022-09-12T13:07:53;1.70;;;0.80;;
63203;SDS011;49297;43.210;27.914;2022-09-12T13:10:23;2.50;;;1.67;;
63203;SDS011;49297;43.210;27.914;2022-09-12T13:12:53;1.92;;;1.50;;
63203;SDS011;49297;43.210;27.914;2022-09-12T13:18:00;4.35;;;1.42;;
63203;SDS011;49297;43.210;27.914;2022-09-12T13:20:32;1.77;;;1.17;;
63203;SDS011;49297;43.210;27.914;2022-09-12T13:23:02;1.65;;;1.15;;
63203;SDS011;49297;43.210;27.914;2022-09-12T13:25:32;3.95;;;2.17;;
63203;SDS011;49297;43.210;27.914;2022-09-12T13:30:32;9.65;;;1.10;;
63203;SDS011;49297;43.210;27.914;2022-09-12T13:33:18;6.85;;;1.20;;
63203;SDS011;49297;43.210;27.914;2022-09-12T13:41:51;1.50;;;1.10;;
63203;SDS011;49297;43.210;27.914;2022-09-12T13:44:39;3.78;;;1.52;;
63203;SDS011;49297;43.210;27.914;2022-09-12T13:47:15;2.47;;;1.15;;
63203;SDS011;49297;43.210;27.914;2022-09-12T13:50:04;1.90;;;1.67;;
63203;SDS011;49297;43.210;27.914;2022-09-12T13:52:32;1.92;;;1.42;;
63203;SDS011;49297;43.210;27.914;2022-09-12T13:55:04;2.30;;;1.10;;
63203;SDS011;49297;43.210;27.914;2022-09-12T13:57:37;1.48;;;0.98;;
63203;SDS011;49297;43.210;27.914;2022-09-12T14:00:16;1.40;;;1.15;;
63203;SDS011;49297;43.210;27.914;2022-09-12T14:02:46;1.65;;;0.80;;
63203;SDS011;49297;43.210;27.914;2022-09-12T14:05:18;3.20;;;1.30;;
63203;SDS011;49297;43.210;27.914;2022-09-12T14:07:53;1.40;;;0.90;;
63203;SDS011;49297;43.210;27.914;2022-09-12T14:10:25;1.88;;;1.00;;
63203;SDS011;49297;43.210;27.914;2022-09-12T14:12:52;1.30;;;0.98;;
63203;SDS011;49297;43.210;27.914;2022-09-12T14:15:22;1.73;;;1.40;;
63203;SDS011;49297;43.210;27.914;2022-09-12T14:17:55;2.75;;;1.17;;
63203;SDS011;49297;43.210;27.914;2022-09-12T14:20:26;3.97;;;0.87;;
63203;SDS011;49297;43.210;27.914;2022-09-12T14:23:00;1.60;;;1.00;;
63203;SDS011;49297;43.210;27.914;2022-09-12T14:25:34;2.00;;;1.00;;
63203;SDS011;49297;43.210;27.914;2022-09-12T14:28:05;2.17;;;1.40;;
63203;SDS011;49297;43.210;27.914;2022-09-12T14:30:37;2.10;;;1.42;;
63203;SDS011;49297;43.210;27.914;2022-09-12T14:35:35;1.52;;;1.17;;
63203;SDS011;49297;43.210;27.914;2022-09-12T14:40:41;2.10;;;1.20;;
63203;SDS011;49297;43.210;27.914;2022-09-12T14:43:20;4.63;;;1.67;;
63203;SDS011;49297;43.210;27.914;2022-09-12T14:46:04;2.90;;;1.10;;
63203;SDS011;49297;43.210;27.914;2022-09-12T14:48:41;1.45;;;1.02;;
63203;SDS011;49297;43.210;27.914;2022-09-12T14:51:20;3.53;;;1.23;;
63203;SDS011;49297;43.210;27.914;2022-09-12T14:53:51;3.15;;;1.42;;
63203;SDS011;49297;43.210;27.914;2022-09-12T14:56:19;3.50;;;1.90;;
63203;SDS011;49297;43.210;27.914;2022-09-12T14:58:46;1.73;;;0.88;;
63203;SDS011;49297;43.210;27.914;2022-09-12T15:06:21;1.58;;;0.98;;
63203;SDS011;49297;43.210;27.914;2022-09-12T15:08:47;2.25;;;1.10;;
63203;SDS011;49297;43.210;27.914;2022-09-12T15:11:13;1.25;;;0.85;;
63203;SDS011;49297;43.210;27.914;2022-09-12T15:13:40;2.90;;;1.57;;
63203;SDS011;49297;43.210;27.914;2022-09-12T15:16:07;8.18;;;2.08;;
63203;SDS011;49297;43.210;27.914;2022-09-12T15:18:35;3.28;;;1.77;;
63203;SDS011;49297;43.210;27.914;2022-09-12T15:21:02;4.33;;;2.30;;
63203;SDS011;49297;43.210;27.914;2022-09-12T15:24:03;2.78;;;1.17;;
63203;SDS011;49297;43.210;27.914;2022-09-12T15:26:23;4.45;;;2.55;;
63203;SDS011;49297;43.210;27.914;2022-09-12T15:28:51;3.08;;;1.90;;
63203;SDS011;49297;43.210;27.914;2022-09-12T15:31:24;2.47;;;1.35;;
63203;SDS011;49297;43.210;27.914;2022-09-12T15:33:55;1.65;;;1.25;;
63203;SDS011;49297;43.210;27.914;2022-09-12T15:36:23;2.40;;;1.37;;
63203;SDS011;49297;43.210;27.914;2022-09-12T15:38:49;2.42;;;1.52;;
63203;SDS011;49297;43.210;27.914;2022-09-12T15:41:17;4.53;;;2.03;;
63203;SDS011;49297;43.210;27.914;2022-09-12T15:43:45;5.80;;;2.20;;
63203;SDS011;49297;43.210;27.914;2022-09-12T15:46:12;1.52;;;1.40;;
63203;SDS011;49297;43.210;27.914;2022-09-12T15:48:39;1.80;;;1.23;;
63203;SDS011;49297;43.210;27.914;2022-09-12T15:51:08;2.87;;;1.80;;
63203;SDS011;49297;43.210;27.914;2022-09-12T15:53:39;3.53;;;1.57;;
63203;SDS011;49297;43.210;27.914;2022-09-12T15:56:05;3.15;;;1.90;;
63203;SDS011;49297;43.210;27.914;2022-09-12T15:58:34;2.08;;;1.27;;
63203;SDS011;49297;43.210;27.914;2022-09-12T16:01:00;3.20;;;1.60;;
63203;SDS011;49297;43.210;27.914;2022-09-12T16:03:27;4.53;;;1.83;;
63203;SDS011;49297;43.210;27.914;2022-09-12T16:05:55;5.32;;;1.67;;
63203;SDS011;49297;43.210;27.914;2022-09-12T16:08:21;4.35;;;1.73;;
63203;SDS011;49297;43.210;27.914;2022-09-12T16:10:48;2.22;;;1.70;;
63203;SDS011;49297;43.210;27.914;2022-09-12T16:13:18;1.65;;;1.15;;
63203;SDS011;49297;43.210;27.914;2022-09-12T16:18:26;2.72;;;1.27;;
63203;SDS011;49297;43.210;27.914;2022-09-12T16:20:54;2.90;;;1.73;;
63203;SDS011;49297;43.210;27.914;2022-09-12T16:23:21;5.53;;;2.00;;
63203;SDS011;49297;43.210;27.914;2022-09-12T16:25:57;2.30;;;1.50;;
63203;SDS011;49297;43.210;27.914;2022-09-12T16:28:25;2.97;;;2.00;;
63203;SDS011;49297;43.210;27.914;2022-09-12T16:30:58;4.70;;;1.80;;
63203;SDS011;49297;43.210;27.914;2022-09-12T16:36:10;3.15;;;2.10;;
63203;SDS011;49297;43.210;27.914;2022-09-12T16:38:46;3.85;;;1.85;;
63203;SDS011;49297;43.210;27.914;2022-09-12T16:41:13;4.65;;;2.08;;
63203;SDS011;49297;43.210;27.914;2022-09-12T16:43:41;3.33;;;1.87;;
63203;SDS011;49297;43.210;27.914;2022-09-12T16:46:11;3.10;;;2.00;;
63203;SDS011;49297;43.210;27.914;2022-09-12T16:48:47;3.40;;;1.98;;
63203;SDS011;49297;43.210;27.914;2022-09-12T16:51:15;4.50;;;2.40;;
63203;SDS011;49297;43.210;27.914;2022-09-12T16:53:42;2.65;;;1.90;;
63203;SDS011;49297;43.210;27.914;2022-09-12T16:56:08;3.67;;;1.95;;
63203;SDS011;49297;43.210;27.914;2022-09-12T16:58:34;4.78;;;2.35;;
63203;SDS011;49297;43.210;27.914;2022-09-12T17:01:05;3.93;;;1.90;;
63203;SDS011;49297;43.210;27.914;2022-09-12T17:03:32;6.97;;;2.00;;
63203;SDS011;49297;43.210;27.914;2022-09-12T17:06:01;4.82;;;3.15;;
63203;SDS011;49297;43.210;27.914;2022-09-12T17:08:38;3.85;;;2.50;;
63203;SDS011;49297;43.210;27.914;2022-09-12T17:11:06;2.95;;;2.08;;
63203;SDS011;49297;43.210;27.914;2022-09-12T17:13:34;4.55;;;2.40;;
63203;SDS011;49297;43.210;27.914;2022-09-12T17:16:09;5.75;;;3.72;;
63203;SDS011;49297;43.210;27.914;2022-09-12T17:18:36;5.55;;;3.63;;
63203;SDS011;49297;43.210;27.914;2022-09-12T17:21:06;5.75;;;4.32;;
63203;SDS011;49297;43.210;27.914;2022-09-12T17:23:33;5.20;;;3.53;;
63203;SDS011;49297;43.210;27.914;2022-09-12T17:25:59;14.38;;;4.60;;
63203;SDS011;49297;43.210;27.914;2022-09-12T17:28:25;6.38;;;4.30;;
63203;SDS011;49297;43.210;27.914;2022-09-12T17:30:55;7.75;;;4.47;;
63203;SDS011;49297;43.210;27.914;2022-09-12T17:33:22;6.13;;;4.63;;
63203;SDS011;49297;43.210;27.914;2022-09-12T17:38:31;5.70;;;4.20;;